West Palm Beach, FL (33406)

7:27 PM EST on February 06, 2016 (GMT -0500)
SFWMD | | Change Station
CLOSE
Current Station
Personal Weather Station
Location: West Palm Beach, FL
Elevation: 16 ft
Nearby Weather Stations

Elev 16 ft 26.65 °N, 80.07 °W | Updated 42 minutes ago

Overcast
Overcast
73 °F
Feels Like 74 °F
N
7
Wind Variable Wind from SE
Gusts 12.0 mph

Today
High -- | Low -- °F
--% Chance of Precip.
Yesterday
High -- | Low -- °F
Precip. -- in
Pressure 30.00 in
Visibility 1.5 miles
Clouds Mostly Cloudy 1300 ft
Mostly Cloudy 4500 ft
Mostly Cloudy 11000 ft
Heat Index 74 °F
Dew Point 65 °F
Humidity 77%
Rainfall in
Snow Depth Not available.
7:02 AM 6:06 PM
Waning Crescent, 3% visible
SPECI KPBI 070022Z 19011KT 1 1/2SM R10L/4000VP6000FT +RA BR BKN013 BKN045 BKN110 22/19 A3000 RMK AO2 P0015 T02170194 $
Pressure 30.00 in
Visibility 1.5 miles
Clouds Mostly Cloudy 1300 ft
Mostly Cloudy 4500 ft
Mostly Cloudy 11000 ft
Heat Index 74 °F
Dew Point 65 °F
Humidity 77%
Rainfall in
Snow Depth Not available.
7:02 AM 6:06 PM
Waning Crescent, 3% visible
SPECI KPBI 070022Z 19011KT 1 1/2SM R10L/4000VP6000FT +RA BR BKN013 BKN045 BKN110 22/19 A3000 RMK AO2 P0015 T02170194 $

10-Day Weather Forecast

Almanac

Astronomy

Feb. 06, 2016 Rise Set
Actual Time
Civil Twilight
Nautical Twilight
Astronomical Twilight
Moon
Length of Visible Light
Length of Day
Tomorrow will be .
, % of the Moon is Illuminated

Today's Extremes

State Highs State Lows

Community

WunderPhotos

Upload Photos

1,891,106 photos uploaded!

WunderBlog® & News

Nearby

Air Quality

  Air Quality AQ Index Pollutant
Not available.

Snow Depth

Station Depth Elevation

Earthquake Activity

City Distance Mag. Time & Date
Minimum magnitude displayed is 2.5.

Coastal Water Temperatures

Place Temperature

Stations

Nearby Weather Stations

Station Location Temp. Windchill Dew Point Humidity Wind Precip. Elev Updated Type
                   

Watches & Warnings

There are currently no watches in effect.